Terminal Aerodrome Forecast
Issued by NWS

Home | Current Version | Previous Version | Text Only | Print | Product List | Glossary On
Versions: 1 2 3 4 5 6 7 8 9 10 11 12 13 14
000
FTUS44 KLIX 282300
TAFGPT
TAF
KGPT 282332Z 0100/0124 12007KT P6SM SCT250
     FM010200 11007KT P6SM BKN090
     FM010500 09008KT P6SM BKN020
      TEMPO 0110/0114 3SM BR BKN015
     FM011400 08008KT P6SM OVC015
     FM012000 12008KT P6SM OVC015=

USA.gov is the U.S. government's official web portal to all federal, state and local government web resources and services.